Time;durP1;ratioP1;P1;durP2;ratioP2;P2;SDS_P1;SDS_P2;PMS_P1;PMS_P2;Temp;Humidity;BMP_temperature;BMP_pressure;BME280_temperature;BME280_humidity;BME280_pressure;Samples;Min_cycle;Max_cycle;Signal;HPM_P1;HPM_P2
2021/04/17 00:04:42;;;;;;;10.20;9.20;;;;;;;-142.06;100.00;64312.41;5054821;23;20225;-81
2021/04/17 00:09:04;;;;;;;10.50;9.50;;;;;;;-142.06;100.00;64312.41;5058498;23;20244;-82
2021/04/17 00:13:48;;;;;;;10.57;9.53;;;;;;;-142.06;100.00;64312.41;5052589;28;20240;-82
2021/04/17 00:18:01;;;;;;;10.60;9.60;;;;;;;-142.06;100.00;64312.41;5053562;28;20237;-82
2021/04/17 00:22:26;;;;;;;11.40;10.30;;;;;;;-142.06;100.00;64312.41;5051148;28;20229;-81
2021/04/17 00:26:30;;;;;;;11.17;10.17;;;;;;;-142.06;100.00;64312.41;5049641;28;20225;-82
2021/04/17 00:30:58;;;;;;;11.33;10.23;;;;;;;-142.06;100.00;64312.41;5004588;23;20232;-82
2021/04/17 00:39:50;;;;;;;11.40;10.30;;;;;;;-142.06;100.00;64312.41;5013866;28;20230;-82
2021/04/17 00:44:19;;;;;;;10.30;9.40;;;;;;;-142.06;100.00;64312.41;5053751;28;20304;-81
2021/04/17 00:48:41;;;;;;;11.00;9.90;;;;;;;-142.06;100.00;64312.41;5051289;28;20245;-81
2021/04/17 00:52:43;;;;;;;11.10;10.10;;;;;;;-142.06;100.00;64312.41;5037630;23;20231;-81
2021/04/17 00:57:09;;;;;;;11.27;10.17;;;;;;;-142.06;100.00;64312.41;4982323;23;20236;-82
2021/04/17 01:01:24;;;;;;;10.83;9.83;;;;;;;-142.06;100.00;64312.41;5041053;23;20231;-83
2021/04/17 01:05:22;;;;;;;11.47;10.33;;;;;;;-142.06;100.00;64312.41;5029516;28;20249;-82
2021/04/17 01:10:23;;;;;;;11.20;10.00;;;;;;;-142.06;100.00;64312.41;5032047;28;20566;-82
2021/04/17 01:14:36;;;;;;;12.13;10.23;;;;;;;-142.06;100.00;64312.41;5041366;28;20245;-82
2021/04/17 01:18:44;;;;;;;12.60;11.40;;;;;;;-142.06;100.00;64312.41;5051491;28;20220;-82
2021/04/17 01:23:23;;;;;;;11.73;10.53;;;;;;;-142.06;100.00;64312.41;5053061;28;20197;-81
2021/04/17 01:27:21;;;;;;;12.73;11.43;;;;;;;-142.06;100.00;64312.41;5050504;28;20201;-84
2021/04/17 01:31:38;;;;;;;12.33;11.03;;;;;;;-142.06;100.00;64312.41;5008454;22;20227;-84
2021/04/17 01:35:51;;;;;;;13.00;11.63;;;;;;;-142.06;100.00;64312.41;5027803;23;20228;-84
2021/04/17 01:39:55;;;;;;;12.90;11.57;;;;;;;-142.06;100.00;64312.41;5011196;28;20222;-84
2021/04/17 01:44:17;;;;;;;12.93;11.63;;;;;;;-142.06;100.00;64312.41;4992961;28;20263;-84
2021/04/17 01:48:36;;;;;;;12.37;11.07;;;;;;;-142.06;100.00;64312.41;4992649;28;20223;-84
2021/04/17 01:52:46;;;;;;;14.10;12.60;;;;;;;-142.06;100.00;64312.41;5030885;28;20232;-84
2021/04/17 01:57:06;;;;;;;14.03;11.87;;;;;;;-142.06;100.00;64312.41;5040642;23;20206;-82
2021/04/17 02:01:42;;;;;;;13.93;12.53;;;;;;;-142.06;100.00;64312.41;5000397;28;20671;-81
2021/04/17 02:05:40;;;;;;;13.97;12.30;;;;;;;-142.06;100.00;64312.41;5013411;28;20229;-81
2021/04/17 02:09:54;;;;;;;16.10;13.17;;;;;;;-142.06;100.00;64312.41;5032661;28;20218;-80
2021/04/17 02:14:16;;;;;;;13.57;12.17;;;;;;;-142.06;100.00;64312.41;5025137;28;20221;-81
2021/04/17 02:19:08;;;;;;;15.40;13.80;;;;;;;-142.06;100.00;64312.41;5053959;23;20296;-82
2021/04/17 02:23:39;;;;;;;14.97;13.20;;;;;;;-142.06;100.00;64312.41;5072857;28;20225;-82
2021/04/17 02:27:59;;;;;;;15.47;12.90;;;;;;;-142.06;100.00;64312.41;5078638;28;20193;-81
2021/04/17 02:32:44;;;;;;;15.13;13.53;;;;;;;-142.06;100.00;64312.41;5049244;23;20307;-81
2021/04/17 02:37:36;;;;;;;15.13;13.53;;;;;;;-142.06;100.00;64312.41;5009636;28;20211;-82
2021/04/17 02:41:45;;;;;;;14.50;13.00;;;;;;;-142.06;100.00;64312.41;4990144;28;20283;-82
2021/04/17 02:46:11;;;;;;;14.73;13.20;;;;;;;-142.06;100.00;64312.41;5046806;22;20236;-81
2021/04/17 02:50:44;;;;;;;14.73;12.87;;;;;;;-142.06;100.00;64312.41;5044332;23;20309;-82
2021/04/17 02:54:46;;;;;;;13.93;12.50;;;;;;;-142.06;100.00;64312.41;5025051;28;20732;-83
2021/04/17 02:59:13;;;;;;;16.07;13.63;;;;;;;-142.06;100.00;64312.41;5024848;23;20226;-82
2021/04/17 03:03:40;;;;;;;15.03;13.43;;;;;;;-142.06;100.00;64312.41;5053188;28;20225;-82
2021/04/17 03:08:47;;;;;;;16.10;14.30;;;;;;;-142.06;100.00;64312.41;5011223;28;20227;-81
2021/04/17 03:13:06;;;;;;;15.73;13.97;;;;;;;-142.06;100.00;64312.41;5022739;23;20230;-84
2021/04/17 03:17:36;;;;;;;16.30;13.57;;;;;;;-142.06;100.00;64312.41;5048551;28;20208;-84
2021/04/17 03:22:07;;;;;;;15.63;13.07;;;;;;;-142.06;100.00;64312.41;5055910;23;20712;-85
2021/04/17 03:26:10;;;;;;;15.80;14.00;;;;;;;-142.06;100.00;64312.41;5059148;23;20637;-83
2021/04/17 03:30:19;;;;;;;15.37;13.77;;;;;;;-142.06;100.00;64312.41;5046652;22;20310;-84
2021/04/17 03:34:48;;;;;;;17.13;14.00;;;;;;;-142.06;100.00;64312.41;5016564;28;20240;-84
2021/04/17 03:39:03;;;;;;;16.07;14.23;;;;;;;-142.06;100.00;64312.41;5033403;28;20218;-84
2021/04/17 03:43:53;;;;;;;16.33;14.63;;;;;;;-142.06;100.00;64312.41;5032282;28;20252;-84
2021/04/17 03:48:11;;;;;;;15.47;13.63;;;;;;;-142.06;100.00;64312.41;5026085;23;20248;-84
2021/04/17 03:52:21;;;;;;;16.70;13.53;;;;;;;-142.06;100.00;64312.41;5040313;28;20306;-84
2021/04/17 03:56:43;;;;;;;16.27;13.80;;;;;;;-142.06;100.00;64312.41;5051642;28;20198;-84
2021/04/17 04:01:36;;;;;;;16.33;13.53;;;;;;;-142.06;100.00;64312.41;5028029;28;20261;-84
2021/04/17 04:05:39;;;;;;;16.97;14.30;;;;;;;-142.06;100.00;64312.41;5013991;28;20238;-85
2021/04/17 04:10:08;;;;;;;14.43;12.93;;;;;;;-142.06;100.00;64312.41;5031943;28;20244;-84
2021/04/17 04:14:44;;;;;;;15.93;13.37;;;;;;;-142.06;100.00;64312.41;5051444;28;20225;-84
2021/04/17 04:19:16;;;;;;;16.63;14.13;;;;;;;-142.06;100.00;64312.41;5023082;28;20220;-85
2021/04/17 04:23:39;;;;;;;14.80;13.03;;;;;;;-142.06;100.00;64312.41;5113353;23;20217;-85
2021/04/17 04:28:22;;;;;;;15.67;13.60;;;;;;;-142.06;100.00;64312.41;5051780;23;20609;-84
2021/04/17 04:32:42;;;;;;;15.43;13.13;;;;;;;-142.06;100.00;64312.41;5039041;28;20230;-84
2021/04/17 04:36:54;;;;;;;17.00;13.87;;;;;;;-142.06;100.00;64312.41;5040803;28;20234;-84
2021/04/17 04:41:25;;;;;;;14.90;13.30;;;;;;;-142.06;100.00;64312.41;5052219;23;20229;-81
2021/04/17 04:45:31;;;;;;;16.33;13.03;;;;;;;-142.06;100.00;64312.41;4976488;23;20220;-81
2021/04/17 04:50:17;;;;;;;14.80;12.70;;;;;;;-142.06;100.00;64312.41;5001910;23;20219;-84
2021/04/17 04:55:26;;;;;;;15.00;13.10;;;;;;;-142.06;100.00;64312.41;5042262;28;20212;-84
2021/04/17 04:59:41;;;;;;;15.10;12.67;;;;;;;-142.06;100.00;64312.41;5057909;23;20285;-84
2021/04/17 05:04:00;;;;;;;16.23;13.80;;;;;;;-142.06;100.00;64312.41;5062139;22;20229;-83
2021/04/17 05:08:21;;;;;;;15.20;12.97;;;;;;;-142.06;100.00;64312.41;5011798;28;20227;-83
2021/04/17 05:12:41;;;;;;;15.77;12.63;;;;;;;-142.06;100.00;64312.41;4984161;23;20617;-84
2021/04/17 05:17:01;;;;;;;16.10;13.00;;;;;;;-142.06;100.00;64312.41;5023072;28;20245;-83
2021/04/17 05:21:14;;;;;;;19.10;12.80;;;;;;;-142.06;100.00;64312.41;5013429;28;21224;-84
2021/04/17 05:25:55;;;;;;;15.63;13.27;;;;;;;-142.06;100.00;64312.41;5025999;23;20241;-83
2021/04/17 05:30:36;;;;;;;15.07;12.90;;;;;;;-142.06;100.00;64312.41;5047328;23;20246;-84
2021/04/17 05:35:09;;;;;;;16.07;13.57;;;;;;;-142.06;100.00;64312.41;5057673;23;20245;-83
2021/04/17 05:39:16;;;;;;;13.57;12.17;;;;;;;-142.06;100.00;64312.41;5045726;23;20225;-84
2021/04/17 05:43:22;;;;;;;13.50;11.63;;;;;;;-142.06;100.00;64312.41;5049685;28;20222;-84
2021/04/17 05:47:26;;;;;;;14.60;12.37;;;;;;;-142.06;100.00;64312.41;5023395;28;20227;-83
2021/04/17 05:51:55;;;;;;;13.47;12.07;;;;;;;-142.06;100.00;64312.41;5010420;28;20242;-84
2021/04/17 05:56:05;;;;;;;14.23;12.17;;;;;;;-142.06;100.00;64312.41;5009294;28;20219;-84
2021/04/17 06:00:24;;;;;;;13.33;11.63;;;;;;;-142.06;100.00;64312.41;5014560;28;20261;-84
2021/04/17 06:04:53;;;;;;;14.53;12.13;;;;;;;-142.06;100.00;64312.41;5053939;23;20224;-83
2021/04/17 06:09:14;;;;;;;12.97;10.73;;;;;;;-142.06;100.00;64312.41;5042810;28;20225;-84
2021/04/17 06:13:46;;;;;;;13.20;11.23;;;;;;;-142.06;100.00;64312.41;5059076;23;20240;-80
2021/04/17 06:17:58;;;;;;;13.33;11.57;;;;;;;-142.06;100.00;64312.41;5007162;28;20279;-81
2021/04/17 06:22:36;;;;;;;12.63;11.43;;;;;;;-142.06;100.00;64312.41;5008640;28;20219;-83
2021/04/17 06:26:27;;;;;;;12.30;11.10;;;;;;;-142.06;100.00;64312.41;5018649;23;20175;-84
2021/04/17 06:31:07;;;;;;;12.77;11.27;;;;;;;-142.06;100.00;64312.41;5040924;23;20195;-84
2021/04/17 06:35:42;;;;;;;12.57;11.13;;;;;;;-142.06;100.00;64312.41;5035431;28;20230;-84
2021/04/17 06:39:48;;;;;;;12.70;11.37;;;;;;;-142.06;100.00;64312.41;5055094;28;20514;-84
2021/04/17 06:44:12;;;;;;;13.87;11.57;;;;;;;-142.06;100.00;64312.41;5066882;28;20182;-85
2021/04/17 06:48:52;;;;;;;12.30;10.43;;;;;;;-142.06;100.00;64312.41;5071047;28;20228;-84
2021/04/17 06:58:15;;;;;;;13.93;11.30;;;;;;;-142.06;100.00;64312.41;5065053;28;20248;-84
2021/04/17 07:02:43;;;;;;;12.00;10.47;;;;;;;-142.06;100.00;64312.41;5070142;28;20326;-84
2021/04/17 07:07:28;;;;;;;12.90;10.97;;;;;;;-142.06;100.00;64312.41;5032498;28;20206;-83
2021/04/17 07:12:05;;;;;;;12.90;11.07;;;;;;;-142.06;100.00;64312.41;5021242;28;20210;-83
2021/04/17 07:16:59;;;;;;;12.93;10.90;;;;;;;-142.06;100.00;64312.41;5044919;23;20581;-84
2021/04/17 07:21:28;;;;;;;12.17;10.87;;;;;;;-142.06;100.00;64312.41;5036983;23;20217;-83
2021/04/17 07:25:47;;;;;;;12.63;11.43;;;;;;;-142.06;100.00;64312.41;5029054;28;20592;-85
2021/04/17 07:29:33;;;;;;;13.40;11.03;;;;;;;-142.06;100.00;64312.41;5042860;28;20236;-84
2021/04/17 07:33:23;;;;;;;14.60;11.80;;;;;;;-142.06;100.00;64312.41;5040542;28;20230;-85
2021/04/17 07:38:09;;;;;;;14.67;11.80;;;;;;;-142.06;100.00;64312.41;4979919;28;20252;-83
2021/04/17 07:41:40;;;;;;;12.27;10.87;;;;;;;-142.06;100.00;64312.41;4987707;28;20229;-83
2021/04/17 07:45:42;;;;;;;14.60;12.17;;;;;;;-142.06;100.00;64312.41;4971105;28;20248;-85
2021/04/17 07:49:50;;;;;;;12.77;11.47;;;;;;;-142.06;100.00;64312.41;4986373;28;20255;-82
2021/04/17 07:53:43;;;;;;;12.90;11.60;;;;;;;-142.06;100.00;64312.41;4985429;28;20224;-85
2021/04/17 07:57:46;;;;;;;12.33;11.03;;;;;;;-142.06;100.00;64312.41;4971353;28;20279;-83
2021/04/17 08:01:22;;;;;;;13.03;11.63;;;;;;;-142.06;100.00;64312.41;4992580;28;20227;-86
2021/04/17 08:04:50;;;;;;;13.03;11.27;;;;;;;-142.06;100.00;64312.41;4972011;28;20255;-84
2021/04/17 08:08:17;;;;;;;13.43;12.10;;;;;;;-142.06;100.00;64312.41;4973031;28;20227;-81
2021/04/17 08:12:22;;;;;;;13.63;11.67;;;;;;;-142.06;100.00;64312.41;4972070;28;20283;-81
2021/04/17 08:16:05;;;;;;;12.93;11.47;;;;;;;-142.06;100.00;64312.41;4988753;28;20222;-83
2021/04/17 08:19:56;;;;;;;14.67;12.93;;;;;;;-142.06;100.00;64312.41;4985723;28;20203;-80
2021/04/17 08:23:48;;;;;;;13.80;12.30;;;;;;;-142.06;100.00;64312.41;4986110;28;20232;-82
2021/04/17 08:27:57;;;;;;;14.03;12.53;;;;;;;-142.06;100.00;64312.41;4990877;28;20233;-82
2021/04/17 08:32:04;;;;;;;14.40;11.97;;;;;;;-142.06;100.00;64312.41;4981205;28;20232;-82
2021/04/17 08:36:36;;;;;;;13.97;12.43;;;;;;;-142.06;100.00;64312.41;4992627;28;20250;-81
2021/04/17 08:40:48;;;;;;;13.43;12.23;;;;;;;-142.06;100.00;64312.41;4993154;28;20234;-83
2021/04/17 08:44:31;;;;;;;13.13;11.83;;;;;;;-142.06;100.00;64312.41;4960272;28;20220;-81
2021/04/17 08:49:09;;;;;;;12.70;11.40;;;;;;;-142.06;100.00;64312.41;4982476;28;20219;-81
2021/04/17 08:53:41;;;;;;;12.77;11.57;;;;;;;-142.06;100.00;64312.41;5001920;23;20248;-79
2021/04/17 08:58:20;;;;;;;12.27;11.17;;;;;;;-142.06;100.00;64312.41;5007346;28;20279;-81
2021/04/17 09:02:49;;;;;;;13.07;11.77;;;;;;;-142.06;100.00;64312.41;5036605;28;20273;-83
2021/04/17 09:06:57;;;;;;;12.53;11.23;;;;;;;-142.06;100.00;64312.41;5024305;28;20561;-82
2021/04/17 09:10:43;;;;;;;13.10;11.80;;;;;;;-142.06;100.00;64312.41;5047164;28;20229;-81
2021/04/17 09:14:50;;;;;;;12.13;10.93;;;;;;;-142.06;100.00;64312.41;5033499;28;20252;-82
2021/04/17 09:19:06;;;;;;;12.07;10.97;;;;;;;-142.06;100.00;64312.41;5033108;28;20653;-80
2021/04/17 09:23:04;;;;;;;11.37;10.27;;;;;;;-142.06;100.00;64312.41;5033936;28;20226;-80
2021/04/17 09:27:33;;;;;;;12.57;11.37;;;;;;;-142.06;100.00;64312.41;5036367;28;20230;-81
2021/04/17 09:32:04;;;;;;;12.10;10.57;;;;;;;-142.06;100.00;64312.41;5051953;28;20233;-84
2021/04/17 09:36:31;;;;;;;12.10;10.90;;;;;;;-142.06;100.00;64312.41;5038407;28;20213;-80
2021/04/17 09:40:50;;;;;;;11.50;10.40;;;;;;;-142.06;100.00;64312.41;5037572;28;20240;-83
2021/04/17 09:44:52;;;;;;;11.60;10.47;;;;;;;-142.06;100.00;64312.41;5045818;28;20248;-83
2021/04/17 09:49:15;;;;;;;12.03;10.83;;;;;;;-142.06;100.00;64312.41;5014706;28;20230;-80
2021/04/17 09:53:23;;;;;;;11.33;10.13;;;;;;;-142.06;100.00;64312.41;5050589;28;20229;-83
2021/04/17 09:58:43;;;;;;;11.27;10.17;;;;;;;-142.06;100.00;64312.41;5051622;28;20226;-83
2021/04/17 10:03:14;;;;;;;11.63;9.97;;;;;;;-142.06;100.00;64312.41;5049232;28;20210;-82
2021/04/17 10:07:42;;;;;;;11.27;10.17;;;;;;;-142.06;100.00;64312.41;5031279;28;20226;-81
2021/04/17 10:12:07;;;;;;;11.33;10.13;;;;;;;-142.06;100.00;64312.41;5048073;23;20218;-81
2021/04/17 10:16:14;;;;;;;11.07;9.97;;;;;;;-142.06;100.00;64312.41;5026030;28;20647;-83
2021/04/17 10:20:58;;;;;;;11.40;10.20;;;;;;;-142.06;100.00;64312.41;5015425;28;20225;-82
2021/04/17 10:24:44;;;;;;;11.57;10.33;;;;;;;-142.06;100.00;64312.41;5053927;28;20212;-80
2021/04/17 10:29:01;;;;;;;12.07;9.67;;;;;;;-142.06;100.00;64312.41;5040958;28;20198;-83
2021/04/17 10:33:40;;;;;;;9.60;8.63;;;;;;;-142.06;100.00;64312.41;5002210;28;20668;-81
2021/04/17 10:38:34;;;;;;;10.73;9.63;;;;;;;-142.06;100.00;64312.41;5073193;23;20209;-81
2021/04/17 10:43:18;;;;;;;11.07;9.97;;;;;;;-142.06;100.00;64312.41;5081715;22;20279;-82
2021/04/17 10:48:31;;;;;;;10.03;9.03;;;;;;;-142.06;100.00;64312.41;5039954;23;20206;-83
2021/04/17 10:53:29;;;;;;;11.03;9.10;;;;;;;-142.06;100.00;64312.41;5006619;23;20200;-81
2021/04/17 10:57:53;;;;;;;10.47;9.40;;;;;;;-142.06;100.00;64312.41;5051370;23;20213;-81
2021/04/17 11:02:32;;;;;;;10.43;9.43;;;;;;;-142.06;100.00;64312.41;5076398;28;20204;-81
2021/04/17 11:06:46;;;;;;;9.60;8.70;;;;;;;-142.06;100.00;64312.41;5064373;28;20212;-81
2021/04/17 11:11:22;;;;;;;10.27;9.17;;;;;;;-142.06;100.00;64312.41;5036294;28;20279;-81
2021/04/17 11:16:02;;;;;;;8.87;8.00;;;;;;;-142.06;100.00;64312.41;5050072;28;20217;-80
2021/04/17 11:20:20;;;;;;;10.73;9.70;;;;;;;-142.06;100.00;64312.41;5028199;28;20891;-80
2021/04/17 11:24:34;;;;;;;9.90;8.90;;;;;;;-142.06;100.00;64312.41;5045814;28;20218;-81
2021/04/17 11:28:36;;;;;;;9.90;9.00;;;;;;;-142.06;100.00;64312.41;5056115;23;20230;-81
2021/04/17 11:32:53;;;;;;;11.73;9.87;;;;;;;-142.06;100.00;64312.41;5056902;23;20234;-83
2021/04/17 11:37:07;;;;;;;10.67;9.67;;;;;;;-142.06;100.00;64312.41;5022269;28;20240;-80
2021/04/17 11:41:12;;;;;;;10.30;9.20;;;;;;;-142.06;100.00;64312.41;5053074;28;20205;-83
2021/04/17 11:45:27;;;;;;;10.70;9.60;;;;;;;-142.06;100.00;64312.41;5062744;28;20216;-81
2021/04/17 11:49:30;;;;;;;10.73;9.60;;;;;;;-142.06;100.00;64312.41;5064692;28;20221;-81
2021/04/17 11:53:43;;;;;;;9.87;8.73;;;;;;;-142.06;100.00;64312.41;5012148;28;20277;-81
2021/04/17 11:57:21;;;;;;;10.73;9.73;;;;;;;-142.06;100.00;64312.41;5025290;28;20218;-82
2021/04/17 12:01:15;;;;;;;11.10;10.00;;;;;;;-142.06;100.00;64312.41;5026633;28;20227;-80
2021/04/17 12:04:50;;;;;;;10.20;9.10;;;;;;;-142.06;100.00;64312.41;5026862;28;20226;-81
2021/04/17 12:08:17;;;;;;;9.40;8.40;;;;;;;-142.06;100.00;64312.41;5028030;28;20233;-80
2021/04/17 12:11:48;;;;;;;9.73;8.83;;;;;;;-142.06;100.00;64312.41;4994586;28;20282;-81
2021/04/17 12:15:19;;;;;;;9.73;8.53;;;;;;;-142.06;100.00;64312.41;5012376;28;20195;-81
2021/04/17 12:18:49;;;;;;;10.57;8.90;;;;;;;-142.06;100.00;64312.41;5012075;28;20230;-80
2021/04/17 12:22:18;;;;;;;10.03;9.10;;;;;;;-142.06;100.00;64312.41;5069104;28;20225;-82
2021/04/17 12:25:44;;;;;;;10.03;9.00;;;;;;;-142.06;100.00;64312.41;5028928;28;20228;-81
2021/04/17 12:29:12;;;;;;;10.07;9.00;;;;;;;-142.06;100.00;64312.41;5016520;28;20576;-81
2021/04/17 12:32:38;;;;;;;9.87;8.87;;;;;;;-142.06;100.00;64312.41;5006311;28;20219;-80
2021/04/17 12:36:08;;;;;;;9.93;8.93;;;;;;;-142.06;100.00;64312.41;5006000;28;20229;-80
2021/04/17 12:39:39;;;;;;;10.10;9.10;;;;;;;-142.06;100.00;64312.41;5010896;28;20280;-81
2021/04/17 12:43:14;;;;;;;10.90;9.80;;;;;;;-142.06;100.00;64312.41;5014526;28;20229;-81
2021/04/17 12:46:46;;;;;;;11.97;10.00;;;;;;;-142.06;100.00;64312.41;5013986;28;20317;-81
2021/04/17 12:50:14;;;;;;;10.47;9.47;;;;;;;-142.06;100.00;64312.41;5030934;28;20222;-82
2021/04/17 12:53:43;;;;;;;11.43;9.50;;;;;;;-142.06;100.00;64312.41;5087784;28;20251;-81
2021/04/17 12:57:09;;;;;;;10.43;9.43;;;;;;;-142.06;100.00;64312.41;5087465;28;20220;-83
2021/04/17 13:00:41;;;;;;;10.50;9.37;;;;;;;-142.06;100.00;64312.41;5081130;28;20251;-80
2021/04/17 13:04:31;;;;;;;11.50;10.20;;;;;;;-142.06;100.00;64312.41;5075361;28;20220;-83
2021/04/17 13:08:04;;;;;;;12.07;10.37;;;;;;;-142.06;100.00;64312.41;5079494;28;20225;-83
2021/04/17 13:11:35;;;;;;;11.67;10.47;;;;;;;-142.06;100.00;64312.41;5086505;28;20213;-81
2021/04/17 13:15:00;;;;;;;11.00;9.90;;;;;;;-142.06;100.00;64312.41;5091241;28;20269;-81
2021/04/17 13:18:26;;;;;;;11.87;10.77;;;;;;;-142.06;100.00;64312.41;5086996;28;20221;-80
2021/04/17 13:21:56;;;;;;;13.63;10.73;;;;;;;-142.06;100.00;64312.41;5082771;28;20216;-85
2021/04/17 13:25:22;;;;;;;12.23;10.87;;;;;;;-142.06;100.00;64312.41;5090096;28;20211;-80
2021/04/17 13:28:54;;;;;;;11.83;10.33;;;;;;;-142.06;100.00;64312.41;5024108;23;20221;-81
2021/04/17 13:32:19;;;;;;;12.17;10.60;;;;;;;-142.06;100.00;64312.41;5036374;28;20243;-80
2021/04/17 13:35:45;;;;;;;11.13;10.03;;;;;;;-142.06;100.00;64312.41;5049632;28;20202;-80
2021/04/17 13:39:15;;;;;;;11.20;10.10;;;;;;;-142.06;100.00;64312.41;5031291;28;20308;-81
2021/04/17 13:42:42;;;;;;;10.87;9.73;;;;;;;-142.06;100.00;64312.41;5048335;28;20320;-80
2021/04/17 13:46:10;;;;;;;12.17;10.87;;;;;;;-142.06;100.00;64312.41;5053015;28;20252;-80
2021/04/17 13:49:37;;;;;;;13.63;11.80;;;;;;;-142.06;100.00;64312.41;5039470;28;20684;-82
2021/04/17 13:53:04;;;;;;;13.60;12.20;;;;;;;-142.06;100.00;64312.41;5070812;23;20229;-82
2021/04/17 13:56:40;;;;;;;13.83;11.73;;;;;;;-142.06;100.00;64312.41;5049756;28;20225;-84
2021/04/17 14:00:14;;;;;;;13.47;12.10;;;;;;;-142.06;100.00;64312.41;5081517;23;20231;-81
2021/04/17 14:03:42;;;;;;;12.60;11.13;;;;;;;-142.06;100.00;64312.41;5034034;23;20268;-81
2021/04/17 14:07:12;;;;;;;13.67;12.27;;;;;;;-142.06;100.00;64312.41;5030244;28;20229;-81
2021/04/17 14:10:46;;;;;;;14.47;12.97;;;;;;;-142.06;100.00;64312.41;5074146;23;20249;-82
2021/04/17 14:14:13;;;;;;;13.97;11.77;;;;;;;-142.06;100.00;64312.41;5061580;28;20233;-82
2021/04/17 14:17:43;;;;;;;12.60;11.30;;;;;;;-142.06;100.00;64312.41;5054834;28;20236;-80
2021/04/17 14:21:34;;;;;;;12.97;11.60;;;;;;;-142.06;100.00;64312.41;5069753;28;20229;-80
2021/04/17 14:25:03;;;;;;;12.67;10.70;;;;;;;-142.06;100.00;64312.41;5050752;28;20229;-81
2021/04/17 14:28:31;;;;;;;13.23;11.93;;;;;;;-142.06;100.00;64312.41;5070605;28;20312;-81
2021/04/17 14:31:58;;;;;;;12.80;11.27;;;;;;;-142.06;100.00;64312.41;5076914;23;20223;-80
2021/04/17 14:35:30;;;;;;;13.07;11.47;;;;;;;-142.06;100.00;64312.41;5073400;23;20221;-81
2021/04/17 14:39:19;;;;;;;12.97;11.57;;;;;;;-142.06;100.00;64312.41;5017825;28;20221;-81
2021/04/17 14:43:25;;;;;;;42.10;30.67;;;;;;;-142.06;100.00;64312.41;5068531;28;20243;-81
2021/04/17 14:47:42;;;;;;;17.77;15.53;;;;;;;-142.06;100.00;64312.41;5062563;28;20248;-81
2021/04/17 14:51:44;;;;;;;15.27;13.67;;;;;;;-142.06;100.00;64312.41;5032336;28;20232;-81
2021/04/17 14:55:32;;;;;;;15.17;13.03;;;;;;;-142.06;100.00;64312.41;5038475;28;20245;-82
2021/04/17 14:59:26;;;;;;;13.70;12.37;;;;;;;-142.06;100.00;64312.41;5043341;28;20233;-84
2021/04/17 15:03:21;;;;;;;12.53;10.93;;;;;;;-142.06;100.00;64312.41;5044554;28;20230;-82
2021/04/17 15:07:18;;;;;;;12.03;10.83;;;;;;;-142.06;100.00;64312.41;5047568;28;20213;-82
2021/04/17 15:11:07;;;;;;;12.20;10.90;;;;;;;-142.06;100.00;64312.41;5046279;28;20525;-87
2021/04/17 15:15:00;;;;;;;13.30;11.90;;;;;;;-142.06;100.00;64312.41;5026188;28;20680;-84
2021/04/17 15:19:10;;;;;;;12.83;11.53;;;;;;;-142.06;100.00;64312.41;5045644;28;20206;-83
2021/04/17 15:23:06;;;;;;;14.17;12.67;;;;;;;-142.06;100.00;64312.41;5035984;28;20217;-85
2021/04/17 15:26:51;;;;;;;13.20;11.80;;;;;;;-142.06;100.00;64312.41;5039829;28;20228;-85
2021/04/17 15:30:48;;;;;;;13.50;12.10;;;;;;;-142.06;100.00;64312.41;5036293;28;20245;-84
2021/04/17 15:34:29;;;;;;;14.03;12.43;;;;;;;-142.06;100.00;64312.41;5037882;28;20290;-85
2021/04/17 15:38:25;;;;;;;12.90;11.60;;;;;;;-142.06;100.00;64312.41;5044137;28;20258;-84
2021/04/17 15:42:52;;;;;;;13.47;11.97;;;;;;;-142.06;100.00;64312.41;5048617;28;20226;-85
2021/04/17 15:47:10;;;;;;;12.73;11.53;;;;;;;-142.06;100.00;64312.41;5028302;28;20573;-85
2021/04/17 15:51:15;;;;;;;12.70;11.37;;;;;;;-142.06;100.00;64312.41;5049153;28;20218;-84
2021/04/17 15:55:17;;;;;;;14.23;11.63;;;;;;;-142.06;100.00;64312.41;5037123;28;20492;-82
2021/04/17 16:15:59;;;;;;;12.97;11.63;;;;;;;-142.06;100.00;64312.41;5054443;28;20232;-84
2021/04/17 16:20:21;;;;;;;12.57;11.37;;;;;;;-142.06;100.00;64312.41;5045573;28;20225;-83
2021/04/17 16:24:21;;;;;;;13.70;12.30;;;;;;;-142.06;100.00;64312.41;5046481;28;20568;-83
2021/04/17 16:28:30;;;;;;;12.50;11.23;;;;;;;-142.06;100.00;64312.41;5042479;28;20238;-84
2021/04/17 16:32:18;;;;;;;14.03;12.30;;;;;;;-142.06;100.00;64312.41;5052067;23;20214;-83
2021/04/17 16:36:05;;;;;;;14.93;11.93;;;;;;;-142.06;100.00;64312.41;5025071;28;20303;-84
2021/04/17 16:39:59;;;;;;;14.07;11.90;;;;;;;-142.06;100.00;64312.41;5058746;23;20213;-83
2021/04/17 16:44:12;;;;;;;13.67;12.10;;;;;;;-142.06;100.00;64312.41;4988585;28;20240;-83
2021/04/17 16:48:03;;;;;;;13.17;11.77;;;;;;;-142.06;100.00;64312.41;5048298;28;20224;-82
2021/04/17 16:51:45;;;;;;;15.57;13.97;;;;;;;-142.06;100.00;64312.41;5029788;28;20241;-83
2021/04/17 16:55:58;;;;;;;12.37;11.13;;;;;;;-142.06;100.00;64312.41;5071261;28;20251;-82
2021/04/17 17:00:01;;;;;;;14.03;12.63;;;;;;;-142.06;100.00;64312.41;5080244;23;20495;-84
2021/04/17 17:04:22;;;;;;;12.90;11.67;;;;;;;-142.06;100.00;64312.41;5062794;28;20225;-82
2021/04/17 17:08:47;;;;;;;12.63;11.43;;;;;;;-142.06;100.00;64312.41;5073540;28;20261;-84
2021/04/17 17:12:44;;;;;;;13.30;11.90;;;;;;;-142.06;100.00;64312.41;5065533;28;20655;-86
2021/04/17 17:21:29;;;;;;;12.37;11.23;;;;;;;-142.06;100.00;64312.41;5070127;28;20229;-86
2021/04/17 17:25:31;;;;;;;13.20;11.90;;;;;;;-142.06;100.00;64312.41;5062808;23;20228;-86
2021/04/17 17:29:58;;;;;;;13.40;12.10;;;;;;;-142.06;100.00;64312.41;5032974;28;20480;-85
2021/04/17 17:34:17;;;;;;;13.27;11.97;;;;;;;-142.06;100.00;64312.41;5034908;28;20214;-86
2021/04/17 17:38:40;;;;;;;23.97;19.37;;;;;;;-142.06;100.00;64312.41;5036841;28;20230;-84
2021/04/17 17:43:13;;;;;;;17.87;15.97;;;;;;;-142.06;100.00;64312.41;5059389;28;20226;-85
2021/04/17 17:52:00;;;;;;;13.70;12.40;;;;;;;-142.06;100.00;64312.41;5036936;23;20318;-82
2021/04/17 17:56:04;;;;;;;14.77;13.33;;;;;;;-142.06;100.00;64312.41;5054632;23;20308;-82
2021/04/17 18:01:16;;;;;;;17.03;15.33;;;;;;;-142.06;100.00;64312.41;5056330;28;20225;-85
2021/04/17 18:06:01;;;;;;;38.20;33.27;;;;;;;-142.06;100.00;64312.41;5052918;28;20276;-84
2021/04/17 18:11:01;;;;;;;15.57;13.97;;;;;;;-142.06;100.00;64312.41;5052486;28;20225;-85
2021/04/17 18:15:13;;;;;;;22.67;20.43;;;;;;;-142.06;100.00;64312.41;5064492;23;20230;-86
2021/04/17 18:19:50;;;;;;;14.03;12.63;;;;;;;-142.06;100.00;64312.41;5066239;28;20212;-84
2021/04/17 18:23:44;;;;;;;13.63;12.23;;;;;;;-142.06;100.00;64312.41;5090132;22;20228;-83
2021/04/17 18:28:01;;;;;;;13.50;12.07;;;;;;;-142.06;100.00;64312.41;5090405;28;20197;-85
2021/04/17 18:32:19;;;;;;;14.80;13.30;;;;;;;-142.06;100.00;64312.41;5090564;23;20332;-82
2021/04/17 18:36:48;;;;;;;16.20;14.50;;;;;;;-142.06;100.00;64312.41;5066312;28;20231;-82
2021/04/17 18:45:56;;;;;;;17.83;15.87;;;;;;;-142.06;100.00;64312.41;5083545;28;20644;-84
2021/04/17 18:51:05;;;;;;;21.83;19.67;;;;;;;-142.06;100.00;64312.41;5042680;22;20219;-82
2021/04/17 18:56:06;;;;;;;40.43;36.23;;;;;;;-142.06;100.00;64312.41;5067394;23;20232;-86
2021/04/17 19:00:20;;;;;;;23.73;21.23;;;;;;;-142.06;100.00;64312.41;5073046;28;20270;-84
2021/04/17 19:09:20;;;;;;;26.97;24.37;;;;;;;-142.06;100.00;64312.41;5143132;23;20229;-84
2021/04/17 19:13:48;;;;;;;24.97;22.57;;;;;;;-142.06;100.00;64312.41;5051472;28;20239;-83
2021/04/17 19:18:34;;;;;;;24.67;22.13;;;;;;;-142.06;100.00;64312.41;5041586;28;20280;-84